« Back
NWS Peachtree City, Ga » Text Product » ATL Terminal Aerodrome Forecast


Printer-friendly Version
Current Version              Previous Versions:   1  2  3  4  5  6  7  8  9  

Terminal Aerodrome Forecast

946
FTUS42 KFFC 171300 AAA
TAFATL
TAF AMD
KATL 171339Z 1714/1818 33009KT P6SM FEW025
     FM171800 32010KT P6SM SCT045
     FM180100 33005KT P6SM SKC
     FM181500 35007KT P6SM FEW040=

USA.gov is the U.S. government's official web portal to all federal, state and local government web resources and services.